Shelocta, Pennsylvania
Current Conditions -  °F | °C
As of 5:15 PM on Thursday 18 Dec 2014 (Local Time) from KIDI Reporting Station
Overcast Overcast  
Wind Chill: 20°   Ceiling: 1800
Heat Index: 28°   Visibility: 10mi
Dew Point: 23°   Wind: 8mph
Humidity: 80%   Direction: 290°WNW
Pressure: 30.15"   Gusts: 15mph
Location:  40.66°N, 79.3°W
Report Text: KIDI 182215Z AUTO 29007G13KT 10SM OVC018 M02/M05 A3015 RMK A01
Loading
Personal Weather Stations






























Interactive Weather Map New forecast layout! Learn more

10-Day Weather Forecast

Advertisements
Track Severe Weather on mobile